Time;durP1;ratioP1;P1;durP2;ratioP2;P2;SDS_P1;SDS_P2;PMS_P1;PMS_P2;Temp;Humidity;BMP_temperature;BMP_pressure;BME280_temperature;BME280_humidity;BME280_pressure;Samples;Min_cycle;Max_cycle;Signal;HPM_P1;HPM_P2
2023/09/24 00:00:16;;;;;;;16.80;3.33;;;12.70;99.90;;;;;;5030269;28;20413;-59
2023/09/24 00:02:44;;;;;;;10.80;2.63;;;12.70;99.90;;;;;;5023330;28;20050;-59
2023/09/24 00:05:13;;;;;;;10.05;2.17;;;12.70;99.90;;;;;;5026668;28;20045;-59
2023/09/24 00:07:41;;;;;;;10.18;2.70;;;12.70;99.90;;;;;;5028527;28;20053;-59
2023/09/24 00:10:08;;;;;;;9.77;2.97;;;12.80;99.90;;;;;;5030375;28;20500;-58
2023/09/24 00:12:38;;;;;;;10.63;2.97;;;12.80;99.90;;;;;;5030959;28;20478;-59
2023/09/24 00:15:07;;;;;;;12.32;3.53;;;12.80;99.90;;;;;;5033697;28;20646;-59
2023/09/24 00:17:36;;;;;;;10.40;2.92;;;12.80;99.90;;;;;;5026492;28;20391;-59
2023/09/24 00:20:04;;;;;;;11.23;2.67;;;12.80;99.90;;;;;;5041300;28;20578;-59
2023/09/24 00:22:33;;;;;;;10.98;2.80;;;12.90;99.90;;;;;;5050236;28;20052;-59
2023/09/24 00:25:00;;;;;;;13.68;2.53;;;12.90;99.90;;;;;;5035559;28;20045;-58
2023/09/24 00:27:29;;;;;;;10.25;2.65;;;12.90;99.90;;;;;;5029043;28;20044;-59
2023/09/24 00:29:57;;;;;;;11.50;3.17;;;12.90;99.90;;;;;;5028707;28;20409;-59
2023/09/24 00:32:25;;;;;;;11.80;3.00;;;12.90;99.90;;;;;;5028024;28;20053;-59
2023/09/24 00:34:55;;;;;;;8.77;2.78;;;12.90;99.90;;;;;;5021767;28;20049;-59
2023/09/24 00:37:22;;;;;;;15.13;3.08;;;12.80;99.90;;;;;;5031882;28;20064;-58
2023/09/24 00:39:50;;;;;;;9.35;2.70;;;12.80;99.90;;;;;;5029332;28;20053;-59
2023/09/24 00:42:18;;;;;;;11.45;2.90;;;12.80;99.90;;;;;;5027900;28;20400;-59
2023/09/24 00:44:45;;;;;;;10.32;3.40;;;12.80;99.90;;;;;;5029237;28;20041;-59
2023/09/24 00:47:13;;;;;;;11.82;2.67;;;12.80;99.90;;;;;;5028590;28;20052;-59
2023/09/24 00:49:42;;;;;;;13.80;2.95;;;12.80;99.90;;;;;;5035135;28;20048;-59
2023/09/24 00:52:11;;;;;;;16.98;3.30;;;12.70;99.90;;;;;;5047432;28;20045;-59
2023/09/24 00:54:39;;;;;;;16.42;3.15;;;12.80;99.90;;;;;;5037916;28;20052;-58
2023/09/24 00:57:07;;;;;;;15.63;2.47;;;12.80;99.90;;;;;;5028199;28;20049;-58
2023/09/24 00:59:35;;;;;;;12.35;3.42;;;12.80;99.90;;;;;;5029051;28;20053;-59
2023/09/24 01:02:03;;;;;;;18.70;3.25;;;12.80;99.90;;;;;;5026937;28;20398;-58
2023/09/24 01:04:33;;;;;;;11.80;2.88;;;12.80;99.90;;;;;;5016418;28;20400;-59
2023/09/24 01:07:00;;;;;;;11.77;3.35;;;12.80;99.90;;;;;;5025868;28;20045;-59
2023/09/24 01:09:28;;;;;;;12.50;3.13;;;12.80;99.90;;;;;;5029758;28;20063;-59
2023/09/24 01:12:02;;;;;;;10.95;3.10;;;12.80;99.90;;;;;;5042161;28;20068;-59
2023/09/24 01:14:30;;;;;;;16.38;3.80;;;12.80;99.90;;;;;;5030364;28;20472;-59
2023/09/24 01:16:58;;;;;;;13.32;3.17;;;12.80;99.90;;;;;;5028046;28;20045;-59
2023/09/24 01:19:27;;;;;;;12.82;3.00;;;12.80;99.90;;;;;;5025973;28;20049;-59
2023/09/24 01:21:59;;;;;;;11.90;3.10;;;12.80;99.90;;;;;;5035875;28;20045;-59
2023/09/24 01:24:29;;;;;;;10.52;3.28;;;12.80;99.90;;;;;;5063564;28;20045;-59
2023/09/24 01:26:57;;;;;;;;;;;12.80;99.90;;;;;;5027581;28;20060;-59
2023/09/24 01:29:26;;;;;;;10.18;2.80;;;12.80;99.90;;;;;;5027152;28;19932;-59
2023/09/24 01:31:54;;;;;;;12.40;2.70;;;12.80;99.90;;;;;;5019997;28;20046;-59
2023/09/24 01:34:22;;;;;;;12.48;2.95;;;12.80;99.90;;;;;;5015090;28;20029;-59
2023/09/24 01:36:50;;;;;;;10.85;3.60;;;12.80;99.90;;;;;;5030763;28;20045;-58
2023/09/24 01:39:19;;;;;;;9.63;2.42;;;12.80;99.90;;;;;;5046681;28;20044;-59
2023/09/24 01:41:46;;;;;;;14.88;3.25;;;12.90;99.90;;;;;;5044637;28;20052;-59
2023/09/24 01:44:16;;;;;;;9.48;3.60;;;12.80;99.90;;;;;;5031203;28;20052;-59
2023/09/24 01:46:47;;;;;;;10.93;3.85;;;12.90;99.90;;;;;;5029259;28;20056;-59
2023/09/24 01:49:17;;;;;;;10.32;3.55;;;12.80;99.90;;;;;;5034248;28;20056;-59
2023/09/24 01:51:44;;;;;;;7.05;3.35;;;12.90;99.90;;;;;;5038505;28;20045;-59
2023/09/24 01:54:12;;;;;;;14.50;3.08;;;12.90;99.90;;;;;;5011805;28;20042;-59
2023/09/24 01:56:40;;;;;;;12.27;3.63;;;12.90;99.90;;;;;;5013985;28;20053;-59
2023/09/24 01:59:08;;;;;;;11.02;4.25;;;12.90;99.90;;;;;;5063092;28;20504;-59
2023/09/24 02:01:36;;;;;;;13.55;3.90;;;12.90;99.90;;;;;;5029229;28;20056;-59
2023/09/24 02:04:05;;;;;;;12.63;3.17;;;12.90;99.90;;;;;;5031421;28;20045;-59
2023/09/24 02:06:34;;;;;;;13.57;3.78;;;12.90;99.90;;;;;;5031201;28;20072;-59
2023/09/24 02:09:05;;;;;;;10.80;3.72;;;12.90;99.90;;;;;;5029657;28;20440;-59
2023/09/24 02:11:33;;;;;;;19.20;3.95;;;12.80;99.90;;;;;;5030915;28;20076;-58
2023/09/24 02:14:00;;;;;;;11.45;3.88;;;12.80;99.90;;;;;;5030101;28;20041;-58
2023/09/24 02:16:29;;;;;;;17.38;3.60;;;12.90;99.90;;;;;;5030135;28;20497;-59
2023/09/24 02:18:57;;;;;;;11.13;3.53;;;12.90;99.90;;;;;;5034548;28;20033;-58
2023/09/24 02:21:25;;;;;;;17.23;3.95;;;12.90;99.90;;;;;;5050064;28;20049;-59
2023/09/24 02:23:54;;;;;;;16.50;3.83;;;12.90;99.90;;;;;;5010459;28;20050;-59
2023/09/24 02:26:22;;;;;;;10.63;3.60;;;13.00;99.90;;;;;;5011639;28;20612;-59
2023/09/24 02:28:49;;;;;;;11.55;3.97;;;13.00;99.90;;;;;;5011491;28;20058;-59
2023/09/24 02:31:17;;;;;;;8.52;2.47;;;13.00;99.90;;;;;;5026470;28;20057;-59
2023/09/24 02:33:46;;;;;;;8.45;3.13;;;13.10;99.90;;;;;;5029741;28;20619;-58
2023/09/24 02:36:14;;;;;;;13.02;3.42;;;13.10;99.90;;;;;;5030558;28;20052;-59
2023/09/24 02:38:43;;;;;;;11.38;2.88;;;13.10;99.90;;;;;;5029834;28;20053;-59
2023/09/24 02:41:11;;;;;;;13.80;3.72;;;13.10;99.90;;;;;;5030001;28;20053;-58
2023/09/24 02:43:38;;;;;;;13.57;3.72;;;13.20;99.90;;;;;;5031285;28;20049;-58
2023/09/24 02:46:06;;;;;;;9.57;3.97;;;13.20;99.90;;;;;;5030684;28;20045;-58
2023/09/24 02:48:35;;;;;;;14.07;3.67;;;13.20;99.90;;;;;;5031036;28;20052;-58
2023/09/24 02:51:08;;;;;;;12.35;3.67;;;13.20;99.90;;;;;;5040022;28;20042;-58
2023/09/24 02:53:37;;;;;;;13.25;4.18;;;13.20;99.90;;;;;;5030982;28;20050;-58
2023/09/24 02:56:05;;;;;;;19.27;3.57;;;13.20;99.90;;;;;;5030796;28;20050;-58
2023/09/24 02:58:33;;;;;;;16.27;3.47;;;13.20;99.90;;;;;;5029471;28;20050;-58
2023/09/24 03:01:02;;;;;;;14.07;3.92;;;13.10;99.90;;;;;;5028810;28;20061;-58
2023/09/24 03:03:30;;;;;;;11.30;4.28;;;13.10;99.90;;;;;;5030038;28;20402;-59
2023/09/24 03:05:58;;;;;;;8.23;2.88;;;13.00;99.90;;;;;;5029779;28;20049;-58
2023/09/24 03:08:26;;;;;;;10.45;3.28;;;13.00;99.90;;;;;;5029570;28;20045;-58
2023/09/24 03:10:54;;;;;;;14.65;4.13;;;13.00;99.90;;;;;;5029578;28;20053;-58
2023/09/24 03:13:22;;;;;;;12.27;3.45;;;12.90;99.90;;;;;;5031106;28;20067;-58
2023/09/24 03:15:50;;;;;;;16.38;4.20;;;12.90;99.90;;;;;;5032234;28;20053;-58
2023/09/24 03:18:17;;;;;;;16.30;4.15;;;12.90;99.90;;;;;;5033771;28;20033;-58
2023/09/24 03:20:45;;;;;;;12.80;4.07;;;12.90;99.90;;;;;;5047917;28;20041;-58
2023/09/24 03:23:13;;;;;;;15.07;4.00;;;12.90;99.90;;;;;;5047079;28;20049;-58
2023/09/24 03:25:40;;;;;;;22.05;4.40;;;12.90;99.90;;;;;;5033375;28;20053;-57
2023/09/24 03:28:08;;;;;;;15.55;4.20;;;12.90;99.90;;;;;;5034477;28;20058;-59
2023/09/24 03:30:36;;;;;;;17.40;4.70;;;12.90;99.90;;;;;;5017610;28;20445;-58
2023/09/24 03:33:04;;;;;;;14.90;4.40;;;12.90;99.90;;;;;;5026222;28;20038;-59
2023/09/24 03:35:33;;;;;;;11.93;4.57;;;12.90;99.90;;;;;;5011291;28;20056;-58
2023/09/24 03:38:01;;;;;;;12.60;4.40;;;12.90;99.90;;;;;;5024569;28;20053;-58
2023/09/24 03:40:29;;;;;;;13.15;4.50;;;12.90;99.90;;;;;;5041038;28;20045;-59
2023/09/24 03:42:57;;;;;;;15.05;4.65;;;12.90;99.90;;;;;;5050751;28;20064;-58
2023/09/24 03:45:25;;;;;;;13.60;4.80;;;13.00;99.90;;;;;;5049402;28;20472;-58
2023/09/24 03:47:56;;;;;;;11.32;4.18;;;13.00;99.90;;;;;;5036044;28;20053;-58
2023/09/24 03:50:26;;;;;;;18.02;5.07;;;13.00;99.90;;;;;;5043298;28;20045;-59
2023/09/24 03:52:56;;;;;;;9.50;3.97;;;13.00;99.90;;;;;;5050874;28;20045;-58
2023/09/24 03:55:24;;;;;;;9.00;3.30;;;13.00;99.90;;;;;;5049105;28;20037;-59
2023/09/24 03:57:51;;;;;;;9.93;3.67;;;13.00;99.90;;;;;;5037686;28;20481;-58
2023/09/24 04:00:20;;;;;;;12.05;3.40;;;13.10;99.90;;;;;;5038580;28;20040;-58
2023/09/24 04:02:50;;;;;;;10.95;4.07;;;13.10;99.90;;;;;;5046359;28;20063;-58
2023/09/24 04:05:24;;;;;;;10.13;2.88;;;13.10;99.90;;;;;;5028112;28;20052;-58
2023/09/24 04:07:54;;;;;;;12.90;3.78;;;13.10;99.90;;;;;;5029255;28;20045;-58
2023/09/24 04:10:27;;;;;;;12.40;3.85;;;13.10;99.90;;;;;;5039311;28;20045;-58
2023/09/24 04:12:57;;;;;;;10.02;3.33;;;13.20;99.90;;;;;;5039752;28;20050;-58
2023/09/24 04:15:30;;;;;;;9.13;3.83;;;13.20;99.90;;;;;;5030274;28;20061;-58
2023/09/24 04:18:00;;;;;;;12.50;4.45;;;13.20;99.90;;;;;;5037690;28;20041;-58
2023/09/24 04:20:32;;;;;;;13.95;3.67;;;13.20;99.90;;;;;;5044244;28;20045;-59
2023/09/24 04:23:00;;;;;;;9.80;3.90;;;13.20;99.90;;;;;;5045743;28;20048;-58
2023/09/24 04:25:29;;;;;;;10.18;3.33;;;13.20;99.90;;;;;;5028510;28;20401;-59
2023/09/24 04:27:57;;;;;;;7.90;3.67;;;13.30;99.90;;;;;;5029724;28;20045;-59
2023/09/24 04:30:25;;;;;;;9.35;3.78;;;13.30;99.90;;;;;;5019054;28;20073;-59
2023/09/24 04:32:54;;;;;;;11.73;3.80;;;13.30;99.90;;;;;;5010626;28;20053;-58
2023/09/24 04:35:23;;;;;;;10.10;3.97;;;13.40;99.90;;;;;;5010166;28;20045;-59
2023/09/24 04:37:51;;;;;;;12.45;4.05;;;13.40;99.90;;;;;;5012622;28;20686;-58
2023/09/24 04:40:20;;;;;;;10.60;3.30;;;13.40;99.90;;;;;;5025432;28;20034;-58
2023/09/24 04:42:51;;;;;;;11.57;3.85;;;13.50;99.90;;;;;;5029619;28;20042;-59
2023/09/24 04:45:19;;;;;;;8.85;3.53;;;13.50;99.90;;;;;;5028382;28;20055;-58
2023/09/24 04:47:48;;;;;;;12.93;3.85;;;13.60;99.90;;;;;;5028866;28;20061;-59
2023/09/24 04:50:17;;;;;;;;;;;13.60;99.90;;;;;;5042595;28;20076;-58
2023/09/24 04:52:47;;;;;;;12.35;3.60;;;13.60;99.90;;;;;;5049713;28;19928;-59
2023/09/24 04:55:17;;;;;;;13.20;3.92;;;13.60;99.90;;;;;;5049376;28;20498;-58
2023/09/24 04:57:46;;;;;;;10.55;4.05;;;13.70;99.90;;;;;;5027149;28;20041;-58
2023/09/24 05:00:15;;;;;;;9.63;3.63;;;13.70;99.90;;;;;;5029191;28;20037;-59
2023/09/24 05:02:44;;;;;;;14.55;4.55;;;13.70;99.90;;;;;;5019345;28;20393;-59
2023/09/24 05:05:14;;;;;;;12.18;3.88;;;13.80;99.90;;;;;;5026161;28;20068;-59
2023/09/24 05:07:43;;;;;;;10.20;3.80;;;13.80;99.90;;;;;;5026386;28;20403;-58
2023/09/24 05:10:11;;;;;;;9.05;3.58;;;13.90;99.90;;;;;;5023329;28;20048;-58
2023/09/24 05:12:40;;;;;;;9.27;3.90;;;13.90;99.90;;;;;;5034536;28;20049;-59
2023/09/24 05:15:08;;;;;;;10.88;3.97;;;13.90;99.90;;;;;;5026118;28;20077;-58
2023/09/24 05:17:36;;;;;;;10.98;3.67;;;14.00;99.90;;;;;;5024375;28;20068;-58
2023/09/24 05:20:07;;;;;;;8.32;3.50;;;14.00;99.90;;;;;;5029291;28;20038;-58
2023/09/24 05:22:35;;;;;;;7.60;3.63;;;14.00;99.90;;;;;;5025552;28;20402;-59
2023/09/24 05:25:03;;;;;;;7.22;3.78;;;14.10;99.90;;;;;;5025113;28;20541;-58
2023/09/24 05:27:33;;;;;;;10.25;3.80;;;14.10;99.90;;;;;;5057447;28;20048;-58
2023/09/24 05:30:02;;;;;;;10.33;4.13;;;14.10;99.90;;;;;;5018217;28;20421;-58
2023/09/24 05:32:33;;;;;;;7.43;3.50;;;14.10;99.90;;;;;;5011834;28;20805;-58
2023/09/24 05:35:00;;;;;;;8.10;3.63;;;14.10;99.90;;;;;;5033747;28;20052;-58
2023/09/24 05:37:28;;;;;;;11.15;4.10;;;14.20;99.90;;;;;;5025317;28;20072;-58
2023/09/24 05:39:57;;;;;;;6.05;3.10;;;14.20;99.90;;;;;;5025029;28;20053;-58
2023/09/24 05:42:24;;;;;;;17.58;3.22;;;14.20;99.90;;;;;;5024852;28;20436;-58
2023/09/24 05:44:52;;;;;;;7.88;3.22;;;14.20;99.90;;;;;;5019932;28;20045;-58
2023/09/24 05:47:20;;;;;;;14.45;3.42;;;14.20;99.90;;;;;;5004504;28;20061;-58
2023/09/24 05:49:47;;;;;;;9.63;3.70;;;14.20;99.90;;;;;;5017866;28;20520;-58
2023/09/24 05:52:15;;;;;;;7.40;3.05;;;14.20;99.90;;;;;;5026074;28;20037;-59
2023/09/24 05:54:43;;;;;;;8.45;3.30;;;14.20;99.90;;;;;;5041801;28;20404;-58
2023/09/24 05:57:10;;;;;;;9.63;3.15;;;14.20;99.90;;;;;;5044066;28;20420;-59
2023/09/24 05:59:38;;;;;;;6.18;2.78;;;14.30;99.90;;;;;;5042054;28;20615;-59
2023/09/24 06:02:06;;;;;;;7.80;3.17;;;14.30;99.90;;;;;;5007099;28;20052;-58
2023/09/24 06:04:34;;;;;;;7.68;3.08;;;14.30;99.90;;;;;;5024511;28;20719;-59
2023/09/24 06:07:05;;;;;;;6.68;2.85;;;14.40;99.90;;;;;;5024977;28;20053;-58
2023/09/24 06:09:33;;;;;;;6.13;2.67;;;14.40;99.90;;;;;;5023910;28;20057;-58
2023/09/24 06:12:01;;;;;;;5.82;2.40;;;14.40;99.90;;;;;;5026992;28;20042;-58
2023/09/24 06:14:31;;;;;;;8.25;3.08;;;14.50;99.90;;;;;;5033850;28;20053;-59
2023/09/24 06:16:58;;;;;;;5.18;2.20;;;14.50;99.90;;;;;;5005580;28;20053;-58
2023/09/24 06:19:26;;;;;;;6.47;2.85;;;14.50;99.90;;;;;;5024494;28;20091;-58
2023/09/24 06:21:54;;;;;;;6.70;2.42;;;14.50;99.90;;;;;;5024320;28;20045;-59
2023/09/24 06:24:22;;;;;;;5.25;2.40;;;14.60;99.90;;;;;;5031505;28;20045;-58
2023/09/24 06:26:49;;;;;;;5.63;2.83;;;14.60;99.90;;;;;;5027256;28;20512;-58
2023/09/24 06:29:17;;;;;;;5.75;2.70;;;14.60;99.90;;;;;;5024585;28;20058;-58
2023/09/24 06:31:47;;;;;;;11.15;3.15;;;14.70;99.90;;;;;;5008472;28;20042;-58
2023/09/24 06:34:15;;;;;;;7.55;2.45;;;14.70;99.90;;;;;;5032664;28;20042;-58
2023/09/24 06:36:42;;;;;;;6.68;2.55;;;14.80;99.90;;;;;;5024970;28;20205;-58
2023/09/24 06:39:13;;;;;;;5.68;2.40;;;14.80;99.90;;;;;;5024530;28;20068;-58
2023/09/24 06:41:42;;;;;;;5.82;2.38;;;14.80;99.90;;;;;;5005262;28;20054;-63
2023/09/24 06:44:11;;;;;;;9.60;2.58;;;14.80;99.90;;;;;;5026266;28;20084;-58
2023/09/24 06:46:39;;;;;;;8.02;2.15;;;14.90;99.90;;;;;;5008450;28;20038;-59
2023/09/24 06:49:06;;;;;;;7.22;3.17;;;14.90;99.90;;;;;;5007256;28;20480;-58
2023/09/24 06:51:34;;;;;;;5.35;2.40;;;14.90;99.90;;;;;;5027103;28;20037;-58
2023/09/24 06:54:02;;;;;;;5.70;2.40;;;14.90;99.90;;;;;;5031566;28;20046;-58
2023/09/24 06:56:30;;;;;;;6.20;2.38;;;14.90;99.90;;;;;;5028453;28;20061;-59
2023/09/24 06:58:58;;;;;;;9.52;2.60;;;15.00;99.90;;;;;;5028344;28;20057;-58
2023/09/24 07:01:26;;;;;;;5.00;2.25;;;15.00;99.90;;;;;;5022811;28;20496;-58
2023/09/24 07:03:55;;;;;;;8.50;2.70;;;15.00;99.90;;;;;;5031121;28;20049;-57
2023/09/24 07:06:23;;;;;;;6.30;2.90;;;15.10;99.90;;;;;;5030236;28;20044;-56
2023/09/24 07:08:51;;;;;;;8.07;2.20;;;15.10;99.90;;;;;;5027037;28;20052;-58
2023/09/24 07:11:33;;;;;;;6.15;2.65;;;15.10;99.90;;;;;;5045315;28;20055;-57
2023/09/24 07:14:01;;;;;;;7.45;2.58;;;15.10;99.90;;;;;;5030429;28;20048;-57
2023/09/24 07:16:29;;;;;;;7.10;2.38;;;15.20;99.90;;;;;;5016450;28;20057;-57
2023/09/24 07:18:57;;;;;;;7.82;2.22;;;15.20;99.90;;;;;;5012323;28;20592;-58
2023/09/24 07:21:28;;;;;;;8.57;2.33;;;15.30;99.90;;;;;;5040821;28;20297;-57
2023/09/24 07:24:04;;;;;;;7.68;1.85;;;15.30;99.90;;;;;;5025900;28;20045;-57
2023/09/24 07:26:35;;;;;;;13.32;2.03;;;15.30;99.90;;;;;;5022803;28;20050;-58
2023/09/24 07:29:03;;;;;;;6.53;2.50;;;15.40;99.90;;;;;;5027245;28;20061;-58
2023/09/24 07:31:31;;;;;;;6.45;1.73;;;15.40;99.90;;;;;;5017084;28;20046;-57
2023/09/24 07:34:00;;;;;;;8.20;2.40;;;15.40;99.90;;;;;;5033028;28;20041;-58
2023/09/24 07:36:33;;;;;;;7.25;2.08;;;15.50;99.90;;;;;;5010261;28;20058;-57
2023/09/24 07:39:19;;;;;;;8.25;2.03;;;15.50;99.90;;;;;;5016165;28;20049;-57
2023/09/24 07:41:47;;;;;;;6.78;2.20;;;15.50;99.90;;;;;;5023830;28;20041;-57
2023/09/24 07:44:15;;;;;;;8.40;2.28;;;15.50;99.90;;;;;;5017876;28;20049;-57
2023/09/24 07:46:49;;;;;;;10.52;2.15;;;15.60;99.90;;;;;;5018327;28;20413;-57
2023/09/24 07:49:17;;;;;;;7.88;2.40;;;15.60;99.90;;;;;;5030388;28;20679;-57
2023/09/24 07:51:45;;;;;;;8.48;2.28;;;15.60;99.90;;;;;;5018433;28;20536;-57
2023/09/24 07:54:13;;;;;;;10.70;2.60;;;15.60;99.90;;;;;;5026273;28;20042;-58
2023/09/24 07:56:42;;;;;;;6.30;1.95;;;15.60;99.90;;;;;;5006712;28;20088;-57
2023/09/24 07:59:11;;;;;;;10.07;2.75;;;15.70;99.90;;;;;;5021661;28;20056;-57
2023/09/24 08:01:39;;;;;;;10.23;2.50;;;15.70;99.90;;;;;;5020431;28;20042;-57
2023/09/24 08:04:08;;;;;;;10.45;1.95;;;15.70;99.90;;;;;;5026002;28;20057;-56
2023/09/24 08:06:36;;;;;;;7.60;2.13;;;15.80;99.90;;;;;;5023539;28;20053;-57
2023/09/24 08:09:05;;;;;;;10.90;2.50;;;15.80;99.90;;;;;;5025602;28;20048;-57
2023/09/24 08:11:53;;;;;;;4.75;1.75;;;15.90;99.90;;;;;;5030877;28;20053;-57
2023/09/24 08:14:21;;;;;;;8.10;1.90;;;16.00;99.90;;;;;;5023270;28;20048;-57
2023/09/24 08:16:50;;;;;;;10.38;2.45;;;16.10;99.90;;;;;;5020990;28;20042;-57
2023/09/24 08:19:18;;;;;;;7.63;2.17;;;16.10;99.90;;;;;;5019399;28;20049;-57
2023/09/24 08:21:46;;;;;;;6.50;2.28;;;16.20;99.90;;;;;;5021744;28;20041;-57
2023/09/24 08:24:14;;;;;;;8.82;1.88;;;16.20;99.90;;;;;;5023685;28;20481;-57
2023/09/24 08:26:41;;;;;;;8.85;1.95;;;16.20;99.90;;;;;;5007779;28;20045;-57
2023/09/24 08:29:10;;;;;;;11.07;2.38;;;16.20;99.90;;;;;;5021772;28;20547;-57
2023/09/24 08:31:37;;;;;;;7.10;1.95;;;16.20;99.90;;;;;;5014574;28;20725;-59
2023/09/24 08:34:05;;;;;;;6.03;1.42;;;16.30;99.90;;;;;;5027505;28;20045;-57
2023/09/24 08:36:33;;;;;;;8.65;1.70;;;16.30;99.90;;;;;;5023039;28;20393;-57
2023/09/24 08:39:03;;;;;;;7.95;2.03;;;16.40;99.90;;;;;;5026446;28;20053;-57
2023/09/24 08:41:33;;;;;;;5.93;1.23;;;16.40;99.90;;;;;;5023916;28;20532;-57
2023/09/24 08:44:05;;;;;;;6.65;1.58;;;16.40;99.90;;;;;;5032940;28;20056;-58
2023/09/24 08:46:34;;;;;;;5.00;1.38;;;16.40;99.90;;;;;;5013226;28;20888;-57
2023/09/24 08:49:04;;;;;;;4.45;1.38;;;16.50;99.90;;;;;;5023765;28;20580;-58
2023/09/24 08:51:33;;;;;;;;;;;16.50;99.90;;;;;;5016858;28;20042;-57
2023/09/24 08:54:01;;;;;;;7.28;1.45;;;16.50;99.90;;;;;;5020768;28;20414;-57
2023/09/24 08:56:29;;;;;;;4.95;1.73;;;16.50;99.90;;;;;;5015609;28;20502;-57
2023/09/24 08:58:58;;;;;;;6.82;1.75;;;16.60;99.90;;;;;;5016286;28;20041;-57
2023/09/24 09:01:25;;;;;;;8.25;1.40;;;16.60;99.90;;;;;;5020490;28;20046;-57
2023/09/24 09:03:53;;;;;;;6.03;1.42;;;16.60;99.90;;;;;;5023802;28;20045;-57
2023/09/24 09:06:32;;;;;;;9.35;1.52;;;16.60;99.90;;;;;;5013372;28;20042;-58
2023/09/24 09:09:00;;;;;;;5.93;1.48;;;16.70;99.90;;;;;;5020973;28;20493;-58
2023/09/24 09:11:46;;;;;;;8.50;1.45;;;16.70;99.90;;;;;;5023333;28;20045;-58
2023/09/24 09:14:14;;;;;;;5.38;1.38;;;16.70;99.90;;;;;;5024515;28;20053;-58
2023/09/24 09:16:57;;;;;;;6.95;1.23;;;16.70;99.90;;;;;;5019655;28;20041;-58
2023/09/24 09:19:49;;;;;;;5.35;1.63;;;16.70;99.90;;;;;;5017613;28;20529;-58
2023/09/24 09:22:27;;;;;;;5.10;1.08;;;16.70;99.90;;;;;;5041404;28;20045;-58
2023/09/24 09:25:00;;;;;;;4.03;0.88;;;16.80;99.90;;;;;;5016011;28;20049;-58
2023/09/24 09:27:46;;;;;;;6.43;0.88;;;16.70;99.90;;;;;;5019446;28;20049;-58
2023/09/24 09:30:16;;;;;;;5.75;0.77;;;16.80;99.90;;;;;;5024841;28;20061;-58
2023/09/24 09:32:45;;;;;;;3.78;1.00;;;16.80;99.90;;;;;;5019984;28;20048;-58
2023/09/24 09:35:14;;;;;;;5.13;1.33;;;16.90;99.90;;;;;;5042559;28;20048;-59
2023/09/24 09:37:43;;;;;;;5.40;1.10;;;16.90;99.90;;;;;;5043775;28;20067;-59
2023/09/24 09:40:11;;;;;;;4.38;1.25;;;16.90;99.90;;;;;;5043886;28;20053;-58
2023/09/24 09:42:41;;;;;;;2.03;0.65;;;16.90;99.90;;;;;;5021152;28;20056;-59
2023/09/24 09:45:10;;;;;;;6.32;0.98;;;16.90;99.90;;;;;;5024474;28;20038;-59
2023/09/24 09:48:04;;;;;;;3.85;0.93;;;17.00;99.90;;;;;;5013964;28;20264;-59
2023/09/24 09:50:37;;;;;;;4.72;0.80;;;17.00;99.90;;;;;;5029119;28;20152;-58
2023/09/24 09:53:12;;;;;;;3.80;1.08;;;17.00;99.90;;;;;;5025375;28;20049;-58
2023/09/24 09:55:42;;;;;;;3.38;0.93;;;17.10;99.90;;;;;;5014626;28;20511;-58
2023/09/24 09:58:11;;;;;;;2.85;0.65;;;17.10;99.90;;;;;;5028618;28;20045;-58
2023/09/24 10:00:53;;;;;;;3.00;0.93;;;17.10;99.90;;;;;;5015672;28;20042;-58
2023/09/24 10:03:24;;;;;;;4.28;0.98;;;17.10;99.90;;;;;;5023071;28;20421;-58
2023/09/24 10:05:54;;;;;;;5.30;1.00;;;17.20;99.90;;;;;;5019636;28;20506;-58
2023/09/24 10:08:39;;;;;;;4.00;0.90;;;17.20;99.90;;;;;;5020592;28;20503;-58
2023/09/24 10:11:10;;;;;;;2.88;0.70;;;17.30;99.90;;;;;;5020238;28;20538;-58
2023/09/24 10:13:44;;;;;;;4.60;0.80;;;17.30;99.90;;;;;;5033109;28;20409;-58
2023/09/24 10:16:31;;;;;;;5.15;0.80;;;17.40;99.90;;;;;;5015023;28;20049;-58
2023/09/24 10:19:01;;;;;;;4.60;1.00;;;17.50;99.90;;;;;;5022406;28;20046;-58
2023/09/24 10:21:33;;;;;;;3.80;0.82;;;17.60;99.90;;;;;;5022800;28;20052;-58
2023/09/24 10:24:13;;;;;;;3.95;0.70;;;17.70;99.90;;;;;;5016470;28;20076;-58
2023/09/24 10:26:51;;;;;;;3.42;0.93;;;17.70;99.90;;;;;;5016458;28;20046;-58
2023/09/24 10:29:40;;;;;;;1.98;0.70;;;17.80;99.90;;;;;;5015215;28;20050;-58
2023/09/24 10:32:10;;;;;;;5.28;0.70;;;17.80;99.90;;;;;;5010798;28;20481;-58
2023/09/24 10:34:59;;;;;;;1.35;0.40;;;17.90;99.90;;;;;;5040284;28;20049;-58
2023/09/24 10:37:34;;;;;;;2.88;0.40;;;17.90;99.90;;;;;;5009443;28;20049;-58
2023/09/24 10:40:04;;;;;;;3.78;0.50;;;18.00;99.90;;;;;;5016209;28;20037;-58
2023/09/24 10:42:38;;;;;;;1.42;0.40;;;17.90;99.90;;;;;;5015090;28;20045;-58
2023/09/24 10:45:10;;;;;;;2.47;0.30;;;18.00;99.90;;;;;;5026217;28;20047;-59
2023/09/24 10:47:42;;;;;;;2.30;0.40;;;18.20;99.90;;;;;;5008231;28;20049;-60
2023/09/24 10:50:18;;;;;;;1.73;0.50;;;18.30;99.90;;;;;;5025984;28;20048;-59
2023/09/24 10:52:52;;;;;;;0.32;0.25;;;18.40;99.90;;;;;;5022631;28;20041;-58
2023/09/24 10:55:36;;;;;;;1.42;0.60;;;18.50;99.90;;;;;;5016807;28;20053;-58
2023/09/24 10:58:12;;;;;;;2.15;0.70;;;18.60;99.90;;;;;;5012924;28;20061;-58
2023/09/24 11:00:45;;;;;;;4.75;0.77;;;18.60;99.90;;;;;;5031534;28;20049;-58
2023/09/24 11:03:14;;;;;;;3.20;0.75;;;18.70;99.90;;;;;;5019097;28;20393;-58
2023/09/24 11:05:42;;;;;;;1.35;0.60;;;18.70;99.90;;;;;;5017061;28;20068;-58
2023/09/24 11:08:13;;;;;;;1.30;0.47;;;18.70;99.90;;;;;;5023246;28;20049;-58
2023/09/24 11:10:41;;;;;;;1.67;0.50;;;18.60;99.90;;;;;;5023837;28;20053;-58
2023/09/24 11:13:08;;;;;;;1.60;0.57;;;18.60;99.90;;;;;;5034108;28;20060;-58
2023/09/24 11:15:38;;;;;;;3.55;1.02;;;18.60;99.90;;;;;;5044425;28;20045;-58
2023/09/24 11:18:06;;;;;;;;;;;18.60;99.90;;;;;;5043286;28;20045;-58
2023/09/24 11:20:35;;;;;;;2.42;0.75;;;18.50;99.90;;;;;;5025780;28;19921;-57
2023/09/24 11:23:11;;;;;;;4.75;0.98;;;18.50;99.90;;;;;;5021765;28;20049;-57
2023/09/24 11:25:39;;;;;;;3.35;0.82;;;18.50;99.90;;;;;;5014879;28;20684;-58
2023/09/24 11:28:07;;;;;;;5.18;0.82;;;18.40;99.90;;;;;;5022345;28;20045;-58
2023/09/24 11:30:53;;;;;;;4.82;0.80;;;18.40;99.90;;;;;;5019223;28;20052;-57
2023/09/24 11:33:23;;;;;;;5.47;0.68;;;18.40;99.90;;;;;;5018948;28;20052;-58
2023/09/24 11:35:53;;;;;;;;;;;18.40;99.90;;;;;;5011297;28;20116;-58
2023/09/24 11:38:35;;;;;;;6.22;1.00;;;18.40;99.90;;;;;;5017645;28;19921;-58
2023/09/24 11:41:07;;;;;;;4.57;1.00;;;18.30;99.90;;;;;;5021237;28;20397;-58
2023/09/24 11:43:36;;;;;;;5.07;0.77;;;18.30;99.90;;;;;;5025103;28;20041;-58
2023/09/24 11:46:32;;;;;;;3.88;1.05;;;18.30;99.90;;;;;;5009061;28;20375;-57
2023/09/24 11:49:00;;;;;;;8.95;1.20;;;18.30;99.90;;;;;;5018691;28;20403;-57
2023/09/24 11:51:29;;;;;;;7.70;1.45;;;18.30;99.90;;;;;;5014985;28;20409;-58
2023/09/24 11:53:57;;;;;;;8.00;1.30;;;18.20;99.90;;;;;;5023493;28;20053;-58
2023/09/24 11:56:25;;;;;;;4.97;1.33;;;18.30;99.90;;;;;;5014870;28;20299;-57
2023/09/24 11:58:55;;;;;;;9.77;1.40;;;18.20;99.90;;;;;;5014103;28;20041;-58
2023/09/24 12:01:22;;;;;;;6.03;1.55;;;18.20;99.90;;;;;;5023999;28;20042;-58
2023/09/24 12:03:53;;;;;;;10.18;1.90;;;18.10;99.90;;;;;;5026771;28;20052;-58
2023/09/24 12:06:21;;;;;;;11.45;2.35;;;18.10;99.90;;;;;;5026872;28;20041;-57
2023/09/24 12:08:48;;;;;;;8.70;2.85;;;18.00;99.90;;;;;;5025368;28;20056;-57
2023/09/24 12:11:16;;;;;;;8.80;1.60;;;17.90;99.90;;;;;;5047114;28;20325;-58
2023/09/24 12:13:44;;;;;;;6.28;1.55;;;17.80;99.90;;;;;;5024518;28;20455;-57
2023/09/24 12:16:14;;;;;;;9.00;1.60;;;17.70;99.90;;;;;;5046474;28;20401;-57
2023/09/24 12:18:42;;;;;;;12.15;2.10;;;17.60;99.90;;;;;;5030663;28;20049;-57
2023/09/24 12:21:09;;;;;;;11.55;1.77;;;17.70;99.90;;;;;;5030116;28;20057;-57
2023/09/24 12:23:37;;;;;;;11.25;1.73;;;17.60;99.90;;;;;;5026785;28;20398;-57
2023/09/24 12:26:05;;;;;;;11.95;2.30;;;17.60;99.90;;;;;;5024640;28;20045;-57
2023/09/24 12:28:33;;;;;;;7.20;1.42;;;17.70;99.90;;;;;;5018656;28;20069;-57
2023/09/24 12:31:00;;;;;;;5.45;1.60;;;17.70;99.90;;;;;;5022865;28;20050;-57
2023/09/24 12:33:28;;;;;;;8.15;1.67;;;17.80;99.90;;;;;;5021913;28;20048;-57
2023/09/24 12:35:56;;;;;;;7.13;1.65;;;17.90;99.90;;;;;;5012911;28;20054;-58
2023/09/24 12:38:24;;;;;;;8.93;1.95;;;18.00;99.90;;;;;;5025590;28;20040;-59
2023/09/24 12:40:51;;;;;;;10.77;2.10;;;18.30;99.90;;;;;;5033757;28;20049;-60
2023/09/24 12:43:19;;;;;;;5.18;1.38;;;18.50;99.90;;;;;;5023061;28;20068;-58
2023/09/24 12:45:47;;;;;;;8.50;1.60;;;18.70;99.90;;;;;;5029494;28;20048;-59
2023/09/24 12:48:15;;;;;;;6.80;1.55;;;18.90;99.90;;;;;;5029736;28;20045;-64
2023/09/24 12:50:42;;;;;;;10.07;1.60;;;18.90;99.90;;;;;;5031678;28;20057;-58
2023/09/24 12:53:10;;;;;;;7.30;1.80;;;19.00;99.90;;;;;;5029709;28;20041;-60
2023/09/24 12:55:38;;;;;;;9.85;1.38;;;19.10;99.90;;;;;;5028606;28;20053;-60